Time;durP1;ratioP1;P1;durP2;ratioP2;P2;SDS_P1;SDS_P2;PMS_P1;PMS_P2;Temp;Humidity;BMP_temperature;BMP_pressure;BME280_temperature;BME280_humidity;BME280_pressure;Samples;Min_cycle;Max_cycle;Signal;HPM_P1;HPM_P2
2023/04/15 00:00:51;;;;;;;4.25;1.83;;;8.30;99.90;;;8.34;96.58;100119.94;5156077;28;20522;-73
2023/04/15 00:03:24;;;;;;;2.33;1.90;;;8.30;99.90;;;8.32;97.29;100116.41;5164057;28;20049;-71
2023/04/15 00:05:58;;;;;;;3.45;1.90;;;8.30;99.90;;;8.29;97.39;100124.13;5163316;28;20038;-69
2023/04/15 00:08:31;;;;;;;2.13;1.52;;;8.20;99.90;;;8.28;97.58;100116.25;5163233;28;20049;-69
2023/04/15 00:11:04;;;;;;;4.10;1.90;;;8.20;99.90;;;8.29;97.85;100110.25;5163995;28;20042;-69
2023/04/15 00:13:36;;;;;;;4.53;1.92;;;8.20;99.90;;;8.29;98.02;100111.13;5162523;28;20104;-69
2023/04/15 00:16:10;;;;;;;4.43;1.98;;;8.20;99.90;;;8.27;98.22;100110.19;5163669;28;20407;-69
2023/04/15 00:18:43;;;;;;;5.05;2.22;;;8.20;99.90;;;8.21;97.71;100112.56;5162759;28;20038;-69
2023/04/15 00:21:16;;;;;;;5.28;2.20;;;8.20;99.90;;;8.16;97.94;100115.03;5161955;28;20046;-72
2023/04/15 00:23:51;;;;;;;5.85;2.03;;;8.10;99.90;;;8.11;98.41;100120.91;5162337;28;20043;-73
2023/04/15 00:26:23;;;;;;;6.07;2.50;;;8.10;99.90;;;8.07;98.90;100119.03;5164590;28;20046;-69
2023/04/15 00:28:55;;;;;;;4.03;1.60;;;8.00;99.90;;;8.03;98.64;100114.56;5168783;28;20418;-75
2023/04/15 00:31:27;;;;;;;4.30;2.00;;;8.00;99.90;;;7.98;99.06;100119.59;5163504;28;20042;-69
2023/04/15 00:34:01;;;;;;;4.18;1.83;;;8.00;99.90;;;7.95;99.72;100113.41;5163423;28;20034;-69
2023/04/15 00:36:34;;;;;;;3.47;1.83;;;7.90;99.90;;;7.91;99.84;100117.63;5161782;28;20054;-69
2023/04/15 00:39:06;;;;;;;2.90;1.73;;;7.90;99.90;;;7.85;99.62;100117.41;5165625;28;20134;-70
2023/04/15 00:41:39;;;;;;;4.82;1.98;;;7.80;99.90;;;7.77;100.00;100119.75;5169979;28;20046;-71
2023/04/15 00:44:11;;;;;;;3.53;1.83;;;7.70;99.90;;;7.73;100.00;100111.78;5161980;28;20056;-71
2023/04/15 00:46:45;;;;;;;4.30;1.90;;;7.70;99.90;;;7.67;100.00;100112.44;5177993;28;20567;-72
2023/04/15 00:49:18;;;;;;;5.10;2.10;;;7.70;99.90;;;7.64;100.00;100116.66;5163002;28;20043;-69
2023/04/15 00:51:51;;;;;;;3.05;1.75;;;7.70;99.90;;;7.60;100.00;100120.84;5163195;28;20705;-70
2023/04/15 00:54:23;;;;;;;4.90;2.35;;;7.60;99.90;;;7.60;100.00;100118.25;5162891;28;20054;-69
2023/04/15 00:56:55;;;;;;;4.28;2.00;;;7.60;99.90;;;7.59;100.00;100112.19;5163451;28;20495;-72
2023/04/15 00:59:27;;;;;;;3.97;2.15;;;7.60;99.90;;;7.56;100.00;100112.09;5170958;28;20054;-71
2023/04/15 01:02:00;;;;;;;3.63;2.10;;;7.60;99.90;;;7.54;100.00;100120.63;5162809;28;20039;-71
2023/04/15 01:04:33;;;;;;;3.33;1.85;;;7.50;99.90;;;7.48;100.00;100118.69;5161530;28;20064;-70
2023/04/15 01:07:05;;;;;;;3.28;2.20;;;7.50;99.90;;;7.46;100.00;100116.88;5161675;28;20034;-71
2023/04/15 01:09:38;;;;;;;4.93;1.90;;;7.40;99.90;;;7.43;100.00;100114.16;5162862;28;20042;-73
2023/04/15 01:12:12;;;;;;;3.65;2.22;;;7.40;99.90;;;7.39;100.00;100112.31;5165658;28;20046;-71
2023/04/15 01:14:45;;;;;;;3.95;1.80;;;7.40;99.90;;;7.35;100.00;100114.75;5169912;28;20438;-69
2023/04/15 01:17:17;;;;;;;2.55;1.65;;;7.40;99.90;;;7.31;100.00;100112.91;5171634;28;20049;-70
2023/04/15 01:19:52;;;;;;;2.75;2.10;;;7.30;99.90;;;7.29;100.00;100111.94;5173234;28;20034;-69
2023/04/15 01:22:26;;;;;;;2.58;1.50;;;7.30;99.90;;;7.26;100.00;100105.78;5162509;28;20054;-69
2023/04/15 01:25:07;;;;;;;3.67;1.88;;;7.30;99.90;;;7.20;100.00;100114.22;5165695;28;20096;-73
2023/04/15 01:27:44;;;;;;;4.57;1.80;;;7.20;99.90;;;7.15;100.00;100105.38;5166403;28;20038;-70
2023/04/15 01:30:16;;;;;;;2.85;1.83;;;7.20;99.90;;;7.13;100.00;100117.41;5166506;28;20074;-73
2023/04/15 01:32:48;;;;;;;2.88;1.55;;;7.20;99.90;;;7.11;100.00;100119.06;5166675;28;20566;-69
2023/04/15 01:35:21;;;;;;;2.05;1.70;;;7.10;99.90;;;7.09;100.00;100115.50;5165384;28;20720;-69
2023/04/15 01:37:54;;;;;;;4.32;1.88;;;7.10;99.90;;;7.06;100.00;100112.81;5165406;28;20105;-70
2023/04/15 01:40:26;;;;;;;4.88;1.98;;;7.10;99.90;;;7.04;100.00;100119.63;5166352;28;20101;-69
2023/04/15 01:43:00;;;;;;;3.08;1.90;;;7.10;99.90;;;7.01;100.00;100115.22;5166670;28;20039;-68
2023/04/15 01:45:32;;;;;;;3.08;2.15;;;7.00;99.90;;;6.99;100.00;100118.59;5165064;28;20082;-69
2023/04/15 01:48:04;;;;;;;5.82;2.20;;;7.00;99.90;;;6.96;100.00;100114.16;5164952;28;20047;-70
2023/04/15 01:50:37;;;;;;;4.13;1.90;;;7.00;99.90;;;6.94;100.00;100114.94;5164766;28;20046;-69
2023/04/15 01:53:09;;;;;;;3.30;2.15;;;6.90;99.90;;;6.92;100.00;100112.28;5158470;28;20502;-70
2023/04/15 01:55:42;;;;;;;5.97;2.20;;;6.90;99.90;;;6.91;100.00;100117.38;5164530;28;20097;-71
2023/04/15 01:58:15;;;;;;;3.53;2.00;;;6.90;99.90;;;6.89;100.00;100108.69;5173027;28;20078;-71
2023/04/15 02:00:49;;;;;;;4.47;2.20;;;6.90;99.90;;;6.85;100.00;100106.81;5173470;28;20587;-69
2023/04/15 02:03:21;;;;;;;3.88;2.13;;;6.90;99.90;;;6.83;100.00;100119.69;5180919;28;20046;-69
2023/04/15 02:05:53;;;;;;;4.40;2.38;;;6.80;99.90;;;6.84;100.00;100108.50;5166468;28;20109;-69
2023/04/15 02:08:26;;;;;;;4.03;1.92;;;6.90;99.90;;;6.84;100.00;100102.44;5173971;28;20038;-72
2023/04/15 02:11:00;;;;;;;2.95;1.98;;;6.80;99.90;;;6.84;100.00;100107.63;5165906;28;20109;-71
2023/04/15 02:13:33;;;;;;;4.97;2.35;;;6.80;99.90;;;6.80;100.00;100102.34;5164516;28;20194;-69
2023/04/15 02:16:16;;;;;;;3.22;2.15;;;6.80;99.90;;;6.81;100.00;100105.81;5165567;28;20042;-70
2023/04/15 02:18:50;;;;;;;4.40;2.33;;;6.80;99.90;;;6.82;100.00;100110.16;5168871;28;20096;-69
2023/04/15 02:21:23;;;;;;;6.00;2.40;;;6.90;99.90;;;6.84;100.00;100112.78;5167930;28;20422;-70
2023/04/15 02:23:55;;;;;;;5.18;2.25;;;6.80;99.90;;;6.82;100.00;100109.28;5165811;28;20046;-70
2023/04/15 02:26:30;;;;;;;4.05;2.30;;;6.90;99.90;;;6.78;100.00;100113.44;5164300;28;20054;-71
2023/04/15 02:29:04;;;;;;;5.13;2.30;;;6.80;99.90;;;6.74;100.00;100112.44;5163940;28;20046;-68
2023/04/15 02:31:39;;;;;;;3.92;2.40;;;6.80;99.90;;;6.69;100.00;100113.09;5178735;28;20050;-69
2023/04/15 02:34:13;;;;;;;4.00;1.77;;;6.80;99.90;;;6.67;100.00;100118.22;5164610;28;20475;-68
2023/04/15 02:36:53;;;;;;;3.75;2.22;;;6.70;99.90;;;6.66;100.00;100121.63;5168572;28;20039;-69
2023/04/15 02:39:26;;;;;;;4.15;2.58;;;6.70;99.90;;;6.63;100.00;100118.91;5161067;28;20125;-69
2023/04/15 02:41:59;;;;;;;3.63;2.50;;;6.70;99.90;;;6.59;100.00;100122.22;5164287;28;20046;-69
2023/04/15 02:44:35;;;;;;;5.45;2.40;;;6.60;99.90;;;6.56;100.00;100121.19;5164236;28;20046;-71
2023/04/15 02:47:10;;;;;;;4.53;2.85;;;6.60;99.90;;;6.50;100.00;100121.81;5164048;28;20050;-69
2023/04/15 02:49:42;;;;;;;5.05;2.95;;;6.60;99.90;;;6.45;100.00;100126.81;5164958;28;20041;-69
2023/04/15 02:52:14;;;;;;;5.22;2.25;;;6.50;99.90;;;6.42;100.00;100133.59;5175589;28;20046;-69
2023/04/15 02:54:46;;;;;;;2.85;2.30;;;6.50;99.90;;;6.38;100.00;100139.44;5165049;28;20113;-69
2023/04/15 02:57:18;;;;;;;5.65;2.80;;;6.50;99.90;;;6.35;100.00;100141.94;5175719;28;20046;-69
2023/04/15 02:59:52;;;;;;;5.88;2.63;;;6.40;99.90;;;6.34;100.00;100150.53;5163582;28;20174;-69
2023/04/15 03:02:24;;;;;;;6.22;2.53;;;6.40;99.90;;;6.33;100.00;100151.34;5155354;28;20145;-71
2023/04/15 03:04:56;;;;;;;3.60;2.78;;;6.40;99.90;;;6.36;100.00;100148.88;5168033;28;20068;-70
2023/04/15 03:07:29;;;;;;;3.72;2.45;;;6.40;99.90;;;6.39;100.00;100143.81;5160150;28;20042;-70
2023/04/15 03:10:01;;;;;;;4.75;2.40;;;6.40;99.90;;;6.37;100.00;100135.09;5171902;28;20038;-70
2023/04/15 03:12:33;;;;;;;3.75;2.47;;;6.40;99.90;;;6.33;100.00;100138.41;5171657;28;20515;-69
2023/04/15 03:15:10;;;;;;;5.60;2.63;;;6.40;99.90;;;6.31;100.00;100142.59;5165027;28;20614;-69
2023/04/15 03:17:48;;;;;;;2.45;2.13;;;6.40;99.90;;;6.29;100.00;100142.56;5163210;28;20097;-71
2023/04/15 03:20:20;;;;;;;3.72;2.38;;;6.30;99.90;;;6.31;100.00;100142.59;5163547;28;20454;-69
2023/04/15 03:22:53;;;;;;;4.30;2.50;;;6.40;99.90;;;6.29;100.00;100149.44;5155580;28;20069;-69
2023/04/15 03:25:28;;;;;;;3.25;2.35;;;6.40;99.90;;;6.25;100.00;100146.72;5176030;28;20054;-69
2023/04/15 03:28:00;;;;;;;5.03;2.40;;;6.30;99.90;;;6.23;100.00;100144.88;5163161;28;20129;-69
2023/04/15 03:30:34;;;;;;;3.90;2.47;;;6.30;99.90;;;6.21;100.00;100152.59;5164155;28;20085;-68
2023/04/15 03:33:06;;;;;;;5.38;2.67;;;6.30;99.90;;;6.20;100.00;100150.84;5170944;28;20121;-69
2023/04/15 03:35:38;;;;;;;5.45;2.17;;;6.30;99.90;;;6.16;100.00;100151.50;5164025;28;20113;-70
2023/04/15 03:38:10;;;;;;;3.38;2.13;;;6.20;99.90;;;6.13;100.00;100156.56;5164361;28;20046;-69
2023/04/15 03:40:43;;;;;;;5.45;2.55;;;6.20;99.90;;;6.10;100.00;100161.59;5163392;28;20042;-70
2023/04/15 03:43:15;;;;;;;4.00;2.72;;;6.20;99.90;;;6.09;100.00;100167.59;5164417;28;20046;-68
2023/04/15 03:45:48;;;;;;;3.65;2.53;;;6.20;99.90;;;6.08;100.00;100168.41;5156083;28;20046;-70
2023/04/15 03:48:20;;;;;;;4.00;2.35;;;6.20;99.90;;;6.07;100.00;100171.84;5163978;28;20043;-69
2023/04/15 03:50:53;;;;;;;4.00;2.30;;;6.10;99.90;;;6.02;100.00;100173.34;5164026;28;20038;-68
2023/04/15 03:53:25;;;;;;;3.25;2.20;;;6.10;99.90;;;5.98;100.00;100176.59;5155673;28;20053;-69
2023/04/15 03:55:57;;;;;;;3.72;2.30;;;6.10;99.90;;;5.94;100.00;100178.19;5163973;28;20064;-69
2023/04/15 03:58:29;;;;;;;4.35;1.80;;;6.00;99.90;;;5.94;100.00;100178.19;5171595;28;20396;-69
2023/04/15 04:03:37;;;;;;;4.85;2.72;;;6.00;99.90;;;5.94;100.00;100164.38;5142238;28;20066;-70
2023/04/15 04:06:09;;;;;;;4.35;2.65;;;6.00;99.90;;;5.91;100.00;100169.38;5149941;28;20470;-67
2023/04/15 04:08:41;;;;;;;5.10;2.55;;;6.00;99.90;;;5.85;100.00;100161.31;5163804;28;20101;-68
2023/04/15 04:11:14;;;;;;;3.80;2.40;;;6.00;99.90;;;5.80;100.00;100165.41;5163690;28;20050;-70
2023/04/15 04:13:46;;;;;;;3.65;2.40;;;5.90;99.90;;;5.79;100.00;100168.81;5163512;28;20046;-69
2023/04/15 04:16:18;;;;;;;3.83;2.38;;;5.90;99.90;;;5.77;100.00;100170.47;5162080;28;20060;-70
2023/04/15 04:18:52;;;;;;;3.83;2.50;;;5.80;99.90;;;5.73;100.00;100165.13;5163441;28;20050;-71
2023/04/15 04:21:25;;;;;;;5.82;2.63;;;5.80;99.90;;;5.70;100.00;100164.13;5163527;28;20034;-69
2023/04/15 04:23:57;;;;;;;3.22;2.20;;;5.80;99.90;;;5.68;100.00;100171.84;5163648;28;20092;-68
2023/04/15 04:26:30;;;;;;;3.50;2.22;;;5.80;99.90;;;5.65;100.00;100171.69;5163285;28;20050;-67
2023/04/15 04:29:02;;;;;;;3.10;2.25;;;5.70;99.90;;;5.60;100.00;100175.75;5163767;28;20514;-68
2023/04/15 04:31:34;;;;;;;5.10;2.35;;;5.70;99.90;;;5.57;100.00;100178.22;5163667;28;20114;-69
2023/04/15 04:34:07;;;;;;;3.85;2.38;;;5.70;99.90;;;5.56;100.00;100181.63;5163513;28;20046;-69
2023/04/15 04:36:39;;;;;;;3.88;1.65;;;5.70;99.90;;;5.55;100.00;100185.03;5163382;28;20406;-71
2023/04/15 04:39:11;;;;;;;2.97;2.20;;;5.60;99.90;;;5.55;100.00;100181.56;5161999;28;20050;-69
2023/04/15 04:41:44;;;;;;;3.92;2.63;;;5.60;99.90;;;5.53;100.00;100190.94;5163621;28;20046;-70
2023/04/15 04:44:16;;;;;;;4.18;2.15;;;5.60;99.90;;;5.50;100.00;100196.88;5162000;28;20053;-68
2023/04/15 04:46:49;;;;;;;3.70;2.00;;;5.60;99.90;;;5.48;100.00;100193.31;5163133;28;20400;-67
2023/04/15 04:49:22;;;;;;;4.95;2.58;;;5.60;99.90;;;5.47;100.00;100201.00;5163080;28;20559;-69
2023/04/15 04:51:55;;;;;;;3.90;2.20;;;5.60;99.90;;;5.45;100.00;100203.50;5166409;28;20050;-70
2023/04/15 04:54:27;;;;;;;5.20;2.60;;;5.60;99.90;;;5.44;100.00;100206.91;5170131;28;20053;-68
2023/04/15 04:57:00;;;;;;;4.80;2.22;;;5.50;99.90;;;5.42;100.00;100211.16;5169926;28;20053;-70
2023/04/15 04:59:32;;;;;;;3.75;2.05;;;5.50;99.90;;;5.41;100.00;100207.69;5170000;28;20126;-70
2023/04/15 05:02:05;;;;;;;3.38;2.55;;;5.50;99.90;;;5.41;100.00;100210.25;5169681;28;20503;-69
2023/04/15 05:04:38;;;;;;;3.42;2.35;;;5.50;99.90;;;5.41;100.00;100212.84;5170065;28;20047;-68
2023/04/15 05:07:11;;;;;;;4.07;2.17;;;5.50;99.90;;;5.42;100.00;100213.72;5169616;28;20073;-71
2023/04/15 05:09:45;;;;;;;3.40;2.70;;;5.50;99.90;;;5.41;100.00;100215.44;5168400;28;20050;-69
2023/04/15 05:12:17;;;;;;;4.10;2.40;;;5.50;99.90;;;5.41;100.00;100218.00;5169623;28;20523;-69
2023/04/15 05:14:49;;;;;;;4.03;2.03;;;5.50;99.90;;;5.43;100.00;100220.66;5169956;28;20057;-69
2023/04/15 05:17:21;;;;;;;4.78;2.53;;;5.50;99.90;;;5.44;100.00;100218.13;5169688;28;20683;-70
2023/04/15 05:19:55;;;;;;;4.15;2.58;;;5.50;99.90;;;5.51;100.00;100215.84;5169765;28;20502;-67
2023/04/15 05:22:28;;;;;;;4.03;2.20;;;5.60;99.90;;;5.61;100.00;100224.09;5169992;28;20050;-70
2023/04/15 05:25:00;;;;;;;3.30;2.00;;;5.70;99.90;;;5.71;100.00;100215.91;5169486;28;20046;-69
2023/04/15 05:27:32;;;;;;;3.22;2.40;;;5.80;99.90;;;5.84;100.00;100219.94;5169355;28;20407;-68
2023/04/15 05:30:06;;;;;;;3.17;2.38;;;5.90;99.90;;;5.96;100.00;100225.69;5169591;28;20448;-70
2023/04/15 05:32:39;;;;;;;3.55;2.60;;;6.00;99.90;;;6.06;100.00;100221.78;5169624;28;20056;-67
2023/04/15 05:35:12;;;;;;;5.10;3.13;;;6.20;99.90;;;6.17;100.00;100224.84;5168273;28;20054;-70
2023/04/15 05:37:45;;;;;;;5.20;2.90;;;6.30;99.90;;;6.30;100.00;100223.69;5169133;28;20060;-70
2023/04/15 05:40:18;;;;;;;5.47;2.70;;;6.40;99.90;;;6.39;100.00;100222.38;5169257;28;20070;-70
2023/04/15 05:42:52;;;;;;;6.53;3.50;;;6.50;99.90;;;6.49;100.00;100234.00;5169368;28;20054;-69
2023/04/15 05:45:24;;;;;;;3.88;2.58;;;6.60;99.90;;;6.57;100.00;100248.13;5169605;28;20053;-72
2023/04/15 05:47:56;;;;;;;4.88;2.67;;;6.60;99.90;;;6.73;100.00;100260.03;5167903;28;20173;-70
2023/04/15 05:50:30;;;;;;;4.10;2.53;;;6.80;99.90;;;6.90;100.00;100260.72;5169312;28;20049;-69
2023/04/15 05:53:02;;;;;;;4.78;2.50;;;6.90;99.90;;;7.08;100.00;100274.44;5167756;28;20054;-68
2023/04/15 05:55:35;;;;;;;6.88;2.30;;;7.10;99.90;;;7.25;100.00;100265.63;5167893;28;20407;-70
2023/04/15 05:58:07;;;;;;;5.40;2.67;;;7.30;99.90;;;7.50;100.00;100264.88;5169327;28;20112;-67
2023/04/15 06:00:39;;;;;;;4.82;2.85;;;7.50;99.90;;;7.86;100.00;100270.56;5169564;28;20045;-66
2023/04/15 06:03:12;;;;;;;6.32;3.10;;;7.80;99.90;;;8.36;100.00;100274.16;5167529;28;20129;-75
2023/04/15 06:05:45;;;;;;;5.55;2.80;;;8.20;99.90;;;8.88;97.26;100275.06;5164920;28;20539;-66
2023/04/15 06:08:17;;;;;;;5.00;3.33;;;8.60;99.90;;;9.33;94.49;100265.25;5162131;28;20084;-66
2023/04/15 06:10:49;;;;;;;5.65;3.28;;;9.10;99.90;;;9.71;91.65;100276.81;5156271;28;20113;-66
2023/04/15 06:13:21;;;;;;;4.72;2.78;;;9.40;99.90;;;9.99;89.73;100278.53;5169727;28;20352;-61
2023/04/15 06:15:54;;;;;;;5.40;3.20;;;9.70;99.90;;;10.37;88.10;100283.97;5174490;28;20392;-61
2023/04/15 06:18:26;;;;;;;5.30;3.33;;;10.00;99.90;;;10.79;85.51;100286.81;5173154;28;20045;-62
2023/04/15 06:20:59;;;;;;;8.32;4.65;;;10.40;99.90;;;11.23;83.77;100278.34;5165729;28;20046;-62
2023/04/15 06:23:34;;;;;;;8.32;4.65;;;10.80;99.90;;;11.64;81.14;100282.78;5173505;28;20494;-63
2023/04/15 06:26:06;;;;;;;4.82;3.55;;;11.20;99.90;;;11.92;79.32;100286.88;5165373;28;20064;-64
2023/04/15 06:28:38;;;;;;;5.45;3.05;;;11.50;99.90;;;12.16;78.14;100293.50;5165216;28;20058;-63
2023/04/15 06:31:10;;;;;;;5.55;3.35;;;11.70;99.20;;;12.16;77.85;100294.38;5165392;28;20065;-61
2023/04/15 06:33:42;;;;;;;4.53;2.78;;;11.80;98.80;;;12.28;77.49;100298.09;5175005;28;20418;-62
2023/04/15 06:36:16;;;;;;;6.22;3.35;;;11.90;98.40;;;12.54;76.68;100293.38;5171484;28;20057;-61
2023/04/15 06:38:48;;;;;;;6.45;3.00;;;12.10;98.00;;;12.84;75.83;100298.25;5165157;28;20054;-62
2023/04/15 06:41:20;;;;;;;5.15;3.28;;;12.40;97.40;;;13.16;74.61;100291.84;5165104;28;20042;-63
2023/04/15 06:43:52;;;;;;;6.13;3.17;;;12.60;96.80;;;13.42;74.60;100299.25;5173207;28;20925;-62
2023/04/15 06:46:24;;;;;;;5.18;3.33;;;12.90;96.60;;;13.48;74.43;100305.47;5165154;28;20057;-61
2023/04/15 06:48:56;;;;;;;3.83;3.15;;;13.00;96.20;;;13.46;74.14;100307.19;5165064;28;20046;-63
2023/04/15 06:51:31;;;;;;;6.72;3.05;;;13.10;95.90;;;13.45;74.73;100307.19;5164980;28;20526;-64
2023/04/15 06:54:05;;;;;;;;;;;13.10;96.30;;;13.40;74.66;100314.94;5165365;28;20053;-62
2023/04/15 06:56:37;;;;;;;5.18;2.92;;;13.00;96.00;;;13.32;74.26;100313.94;5172659;28;19927;-63
2023/04/15 06:59:09;;;;;;;6.50;3.20;;;13.00;95.80;;;13.45;74.73;100315.03;5164849;28;20100;-62
2023/04/15 07:01:41;;;;;;;4.50;3.25;;;13.00;96.00;;;13.60;74.58;100320.50;5172612;28;20049;-62
2023/04/15 07:04:13;;;;;;;7.72;3.30;;;13.10;96.00;;;13.93;74.57;100325.31;5171275;28;20046;-62
2023/04/15 07:06:46;;;;;;;6.85;3.50;;;13.30;96.10;;;14.37;73.13;100325.91;5163238;28;20058;-62
2023/04/15 07:09:18;;;;;;;6.78;3.28;;;13.70;95.50;;;14.69;72.68;100330.66;5164528;28;20050;-62
2023/04/15 07:11:51;;;;;;;5.57;3.60;;;14.00;95.00;;;14.95;71.93;100332.69;5164336;28;20043;-64
2023/04/15 07:14:23;;;;;;;6.65;3.53;;;14.30;94.60;;;15.14;70.89;100334.63;5159748;28;20069;-62
2023/04/15 07:16:56;;;;;;;6.75;3.35;;;14.50;93.80;;;15.23;70.36;100324.19;5163581;28;20046;-63
2023/04/15 07:19:28;;;;;;;10.20;4.88;;;14.60;93.30;;;15.32;70.54;100326.91;5164192;28;20050;-62
2023/04/15 07:22:02;;;;;;;7.22;4.07;;;14.70;93.20;;;15.57;70.01;100338.44;5164211;28;20038;-61
2023/04/15 07:24:34;;;;;;;5.22;3.28;;;14.90;92.70;;;15.73;68.55;100336.84;5164089;28;20074;-61
2023/04/15 07:27:07;;;;;;;6.07;3.10;;;15.10;91.80;;;15.77;68.34;100337.75;5164200;28;20101;-61
2023/04/15 07:29:39;;;;;;;6.65;3.05;;;15.20;91.50;;;15.71;68.57;100335.94;5164830;28;20385;-62
2023/04/15 07:32:11;;;;;;;8.27;3.28;;;15.10;91.20;;;15.74;69.40;100336.00;5170125;28;20515;-61
2023/04/15 07:34:43;;;;;;;5.63;2.97;;;15.20;91.80;;;15.66;68.83;100342.94;5173427;28;20050;-62
2023/04/15 07:37:17;;;;;;;5.68;2.80;;;15.10;91.30;;;15.52;68.46;100339.28;5170415;28;20057;-63
2023/04/15 07:39:49;;;;;;;5.13;2.72;;;15.00;90.90;;;15.32;68.64;100340.03;5163489;28;20388;-63
2023/04/15 07:42:22;;;;;;;6.05;2.90;;;14.90;90.70;;;15.18;69.43;100342.50;5163728;28;20034;-63
2023/04/15 07:44:54;;;;;;;4.07;2.70;;;14.80;91.00;;;15.07;70.05;100348.56;5163806;28;20046;-63
2023/04/15 07:47:26;;;;;;;4.80;3.30;;;14.70;91.40;;;14.99;70.17;100350.19;5163532;28;20049;-61
2023/04/15 07:49:59;;;;;;;4.45;2.53;;;14.60;91.70;;;15.09;70.74;100341.56;5163742;28;20049;-62
2023/04/15 07:52:37;;;;;;;5.57;3.30;;;14.60;91.80;;;15.24;70.07;100344.31;5171567;28;20066;-62
2023/04/15 07:55:10;;;;;;;5.93;3.22;;;14.70;91.70;;;15.34;68.68;100351.41;5161666;28;20061;-61
2023/04/15 07:57:42;;;;;;;3.97;2.50;;;14.80;90.90;;;15.28;67.85;100355.75;5163196;28;20038;-62
2023/04/15 08:00:15;;;;;;;5.72;2.90;;;14.90;90.20;;;15.23;67.41;100353.06;5163713;28;20050;-62
2023/04/15 08:02:48;;;;;;;4.38;2.60;;;14.80;89.70;;;15.10;66.66;100353.81;5171565;28;20048;-64
2023/04/15 08:05:20;;;;;;;3.80;2.35;;;14.70;87.90;;;15.07;67.13;100359.06;5163500;28;20049;-62
2023/04/15 08:07:55;;;;;;;4.80;2.22;;;14.70;88.20;;;15.16;67.96;100364.38;5163100;28;20058;-63
2023/04/15 08:10:27;;;;;;;4.53;2.25;;;14.70;89.40;;;15.28;67.40;100359.25;5161861;28;20144;-63
2023/04/15 08:12:59;;;;;;;6.00;2.30;;;14.80;89.10;;;15.43;66.76;100354.09;5156271;28;20394;-62
2023/04/15 08:15:32;;;;;;;5.60;2.88;;;14.90;88.50;;;15.69;67.10;100367.47;5163040;28;20117;-63
2023/04/15 08:18:04;;;;;;;4.68;2.50;;;15.00;88.90;;;15.89;66.57;100370.25;5163093;28;20117;-63
2023/04/15 08:20:36;;;;;;;3.70;2.25;;;15.20;88.60;;;15.98;65.46;100370.31;5163214;28;20061;-65
2023/04/15 08:23:09;;;;;;;3.35;1.90;;;15.30;86.90;;;16.46;67.41;100371.41;5153679;28;20479;-64
2023/04/15 08:25:42;;;;;;;2.03;1.55;;;15.60;90.00;;;17.04;66.57;100371.63;5160239;28;20050;-64
2023/04/15 08:28:14;;;;;;;21.60;8.73;;;15.90;90.20;;;17.33;63.79;100373.41;5162292;28;20049;-65
2023/04/15 08:30:46;;;;;;;28.92;10.85;;;16.20;86.20;;;17.43;63.38;100375.19;5162388;28;20522;-64
2023/04/15 08:33:19;;;;;;;37.45;15.35;;;16.40;85.50;;;17.48;62.79;100377.81;5162728;28;20054;-64
2023/04/15 08:35:51;;;;;;;36.13;15.02;;;16.50;84.30;;;17.40;62.49;100380.44;5161082;28;20057;-64
2023/04/15 08:38:25;;;;;;;24.45;9.63;;;16.50;83.40;;;17.09;61.32;100384.81;5162162;28;20511;-64
2023/04/15 08:41:00;;;;;;;53.08;20.33;;;16.40;80.70;;;17.01;64.60;100389.16;5162025;28;20550;-63
2023/04/15 08:43:35;;;;;;;60.90;22.55;;;16.30;83.90;;;17.21;66.26;100391.81;5162251;28;20038;-66
2023/04/15 08:46:09;;;;;;;21.25;7.70;;;16.60;86.70;;;17.16;61.22;100397.13;5161872;28;20050;-63
2023/04/15 08:48:42;;;;;;;4.97;2.47;;;16.60;79.80;;;16.71;59.67;100395.25;5162524;28;20504;-62
2023/04/15 08:51:15;;;;;;;5.13;2.28;;;16.40;76.20;;;16.27;60.17;100404.66;5170978;28;20565;-64
2023/04/15 08:53:49;;;;;;;2.75;1.50;;;16.00;76.70;;;16.05;59.59;100404.53;5162688;28;20073;-65
2023/04/15 08:56:25;;;;;;;3.70;1.60;;;15.70;75.70;;;16.06;60.45;100399.28;5168860;28;20503;-63
2023/04/15 08:58:59;;;;;;;1.92;1.42;;;15.60;77.10;;;16.53;61.17;100399.50;5172315;28;20050;-62
2023/04/15 09:01:32;;;;;;;1.98;1.27;;;15.80;78.50;;;17.21;59.83;100403.25;5161872;28;20043;-63
2023/04/15 09:04:06;;;;;;;2.03;1.33;;;16.10;78.30;;;17.60;59.01;100391.88;5162235;28;20038;-64
2023/04/15 09:06:40;;;;;;;1.90;1.30;;;16.50;77.80;;;17.74;58.53;100396.31;5162003;28;20125;-64
2023/04/15 09:09:14;;;;;;;1.83;1.20;;;16.70;76.70;;;17.84;58.88;100409.47;5153542;28;20048;-63
2023/04/15 09:11:46;;;;;;;2.17;1.20;;;16.90;76.70;;;18.03;58.74;100402.41;5162595;28;20042;-65
2023/04/15 09:14:18;;;;;;;1.63;1.10;;;17.10;76.50;;;18.11;58.05;100405.88;5170643;28;20054;-65
2023/04/15 09:16:57;;;;;;;8.75;3.92;;;17.10;75.40;;;18.30;58.61;100416.41;5160332;28;20068;-70
2023/04/15 09:19:30;;;;;;;8.13;3.55;;;17.40;75.90;;;18.38;57.67;100402.28;5160945;28;20050;-63
2023/04/15 09:22:03;;;;;;;10.57;4.30;;;17.60;74.30;;;18.31;57.40;100408.47;5161896;28;20038;-66
2023/04/15 09:24:42;;;;;;;8.60;3.05;;;17.70;73.60;;;18.13;56.55;100412.06;5162143;28;20522;-66
2023/04/15 09:27:16;;;;;;;6.00;2.08;;;17.60;72.00;;;17.77;55.58;100415.63;5169043;28;20054;-68
2023/04/15 09:29:51;;;;;;;3.30;1.67;;;17.40;70.20;;;17.41;56.39;100428.72;5161740;28;20054;-67
2023/04/15 09:32:23;;;;;;;4.32;1.90;;;17.10;70.60;;;17.31;58.04;100430.50;5162031;28;20459;-67
2023/04/15 09:34:55;;;;;;;3.78;1.63;;;17.00;72.20;;;17.43;58.34;100430.50;5161786;28;20624;-68
2023/04/15 09:37:36;;;;;;;1.58;1.20;;;17.00;73.10;;;17.68;57.70;100435.81;5161258;28;20053;-66
2023/04/15 09:40:11;;;;;;;3.92;1.60;;;17.20;72.60;;;17.80;56.46;100441.09;5165340;28;20042;-66
2023/04/15 09:42:56;;;;;;;2.30;1.63;;;17.30;71.30;;;17.96;56.52;100437.56;5165322;28;20495;-66
2023/04/15 09:45:28;;;;;;;4.03;1.40;;;17.40;71.20;;;18.24;56.78;100440.16;5165590;28;20388;-67
2023/04/15 09:48:17;;;;;;;2.92;1.58;;;17.60;71.60;;;18.54;57.54;100441.84;5164808;28;20054;-68
2023/04/15 09:50:52;;;;;;;1.60;0.95;;;17.90;72.20;;;18.76;56.76;100445.31;5165396;28;20447;-66
2023/04/15 09:53:25;;;;;;;2.72;1.35;;;18.10;71.70;;;18.82;56.31;100442.66;5165482;28;20038;-66
2023/04/15 09:56:01;;;;;;;3.92;1.50;;;18.30;71.60;;;18.72;55.93;100451.50;5165186;28;20057;-66
2023/04/15 09:58:37;;;;;;;3.50;1.40;;;18.20;70.20;;;18.45;56.74;100437.47;5165144;28;20050;-69
2023/04/15 10:03:42;;;;;;;2.80;1.65;;;17.90;71.60;;;18.31;57.77;100450.69;5060989;29;20112;-58
2023/04/15 10:06:15;;;;;;;3.78;1.50;;;17.90;71.50;;;18.24;58.38;100450.72;5058805;29;20482;-52
2023/04/15 10:08:48;;;;;;;6.18;2.40;;;17.80;72.10;;;18.38;59.65;100447.16;5065046;29;20407;-55
2023/04/15 10:11:23;;;;;;;2.40;1.30;;;17.90;73.80;;;18.21;57.61;100456.88;5066420;29;20282;-53
2023/04/15 10:13:56;;;;;;;;;;;17.90;71.00;;;18.05;59.51;100458.66;5066431;29;20060;-52
2023/04/15 10:16:29;;;;;;;2.47;1.27;;;17.70;73.00;;;18.02;58.81;100463.94;5066397;29;19962;-56
2023/04/15 10:19:03;;;;;;;4.38;2.42;;;17.70;72.00;;;18.02;60.19;100463.06;5064703;29;20053;-55
2023/04/15 10:21:37;;;;;;;4.55;1.67;;;17.60;73.90;;;18.14;59.97;100457.78;5064306;29;20041;-52
2023/04/15 10:24:09;;;;;;;2.50;1.70;;;17.70;73.70;;;18.24;58.91;100458.63;5065248;29;20055;-54
2023/04/15 10:26:44;;;;;;;5.00;1.92;;;17.80;72.80;;;18.36;59.47;100463.88;5065386;29;20059;-53
2023/04/15 10:29:17;;;;;;;3.83;2.00;;;17.90;73.40;;;18.47;59.33;100470.03;5062453;29;20044;-54
2023/04/15 10:31:49;;;;;;;2.58;1.67;;;18.00;73.40;;;18.52;58.09;100456.78;5062211;29;20052;-54
2023/04/15 10:34:23;;;;;;;3.40;1.67;;;18.10;71.60;;;18.49;59.29;100459.47;5056791;29;20045;-54
2023/04/15 10:36:56;;;;;;;2.25;1.20;;;18.10;72.80;;;18.24;58.03;100463.91;5055650;29;20509;-54
2023/04/15 10:39:43;;;;;;;2.00;1.27;;;18.00;71.00;;;18.10;58.38;100466.56;5065466;29;20048;-53
2023/04/15 10:42:19;;;;;;;1.13;1.10;;;17.80;71.60;;;18.07;58.95;100475.38;5054167;29;20037;-53
2023/04/15 10:44:56;;;;;;;1.88;1.33;;;17.70;72.10;;;18.02;59.03;100473.63;5064462;29;20096;-55
2023/04/15 10:47:29;;;;;;;1.58;1.20;;;17.60;72.40;;;17.98;60.02;100485.03;5063609;29;20052;-56